Time;durP1;ratioP1;P1;durP2;ratioP2;P2;SDS_P1;SDS_P2;PMS_P1;PMS_P2;Temp;Humidity;BMP_temperature;BMP_pressure;BME280_temperature;BME280_humidity;BME280_pressure;Samples;Min_cycle;Max_cycle;Signal;HPM_P1;HPM_P2
2022/09/15 00:04:58;;;;;;;14.10;10.77;;;;;;;;;;10406824;28;20184;-60
2022/09/15 00:09:58;;;;;;;16.85;10.10;;;;;;;;;;10408539;28;20037;-60
2022/09/15 00:14:59;;;;;;;12.57;9.52;;;;;;;;;;10405380;28;20030;-59
2022/09/15 00:20:00;;;;;;;19.50;10.18;;;;;;;;;;10381460;28;20021;-59
2022/09/15 00:25:01;;;;;;;16.27;10.73;;;;;;;;;;10378091;28;20033;-59
2022/09/15 00:30:02;;;;;;;14.90;10.77;;;;;;;;;;10395133;28;20025;-59
2022/09/15 00:35:05;;;;;;;15.43;10.20;;;;;;;;;;10394726;28;20398;-59
2022/09/15 00:40:06;;;;;;;15.45;11.93;;;;;;;;;;10404698;28;20395;-60
2022/09/15 00:45:15;;;;;;;14.95;10.65;;;;;;;;;;10397533;28;20025;-61
2022/09/15 00:50:19;;;;;;;15.55;10.55;;;;;;;;;;10393769;28;20036;-60
2022/09/15 00:55:31;;;;;;;15.57;11.13;;;;;;;;;;10404870;28;20021;-59
2022/09/15 01:00:33;;;;;;;19.50;11.55;;;;;;;;;;10406814;28;20068;-59
2022/09/15 01:05:45;;;;;;;20.13;11.48;;;;;;;;;;10388083;28;20626;-60
2022/09/15 01:10:45;;;;;;;15.63;10.85;;;;;;;;;;10393562;28;20025;-60
2022/09/15 01:16:07;;;;;;;15.20;11.35;;;;;;;;;;10395133;28;20456;-61
2022/09/15 01:21:27;;;;;;;14.68;12.15;;;;;;;;;;10372150;28;20041;-61
2022/09/15 01:27:05;;;;;;;16.48;12.35;;;;;;;;;;10378448;28;20088;-61
2022/09/15 01:37:46;;;;;;;15.27;10.88;;;;;;;;;;10387199;28;20033;-60
2022/09/15 01:42:49;;;;;;;14.88;10.85;;;;;;;;;;10403145;28;20072;-60
2022/09/15 01:47:54;;;;;;;14.32;10.90;;;;;;;;;;10405884;28;20037;-60
2022/09/15 01:53:00;;;;;;;17.13;10.68;;;;;;;;;;10402635;28;20101;-60
2022/09/15 01:58:01;;;;;;;14.30;10.07;;;;;;;;;;10399025;28;20588;-61
2022/09/15 02:03:28;;;;;;;13.23;10.63;;;;;;;;;;10404132;28;20033;-61
2022/09/15 02:08:46;;;;;;;18.25;11.35;;;;;;;;;;10421253;28;20543;-61
2022/09/15 02:14:27;;;;;;;13.35;9.20;;;;;;;;;;10397776;28;20469;-60
2022/09/15 02:19:30;;;;;;;17.08;11.15;;;;;;;;;;10390326;28;20025;-60
2022/09/15 02:24:40;;;;;;;13.85;10.57;;;;;;;;;;10408966;28;20021;-60
2022/09/15 02:29:45;;;;;;;11.73;9.68;;;;;;;;;;10408463;28;20037;-60
2022/09/15 02:34:50;;;;;;;14.52;9.63;;;;;;;;;;10395198;28;20029;-60
2022/09/15 02:39:56;;;;;;;20.88;10.00;;;;;;;;;;10408545;28;20036;-60
2022/09/15 02:44:59;;;;;;;14.32;9.88;;;;;;;;;;10377283;28;20466;-60
2022/09/15 02:50:00;;;;;;;15.82;9.60;;;;;;;;;;10390707;28;20104;-62
2022/09/15 02:55:00;;;;;;;12.43;9.07;;;;;;;;;;10411033;28;20055;-62
2022/09/15 03:00:13;;;;;;;12.32;9.00;;;;;;;;;;10410065;28;20029;-60
2022/09/15 03:05:14;;;;;;;13.13;8.85;;;;;;;;;;10403467;28;20045;-58
2022/09/15 03:10:16;;;;;;;13.15;9.23;;;;;;;;;;10407546;28;20112;-59
2022/09/15 03:15:23;;;;;;;13.02;8.20;;;;;;;;;;10407276;28;20523;-58
2022/09/15 03:20:27;;;;;;;14.98;8.88;;;;;;;;;;10399417;28;20033;-58
2022/09/15 03:25:28;;;;;;;13.30;8.35;;;;;;;;;;10390890;28;20029;-58
2022/09/15 03:30:29;;;;;;;11.10;7.55;;;;;;;;;;10395880;28;20037;-58
2022/09/15 03:35:29;;;;;;;10.95;7.97;;;;;;;;;;10407839;28;20029;-60
2022/09/15 03:40:30;;;;;;;11.55;8.18;;;;;;;;;;10399376;28;20025;-60
2022/09/15 03:45:30;;;;;;;10.80;7.43;;;;;;;;;;10395602;28;20034;-60
2022/09/15 03:50:34;;;;;;;15.27;8.18;;;;;;;;;;10406771;28;20037;-60
2022/09/15 03:55:34;;;;;;;17.98;8.52;;;;;;;;;;10409215;28;20029;-61
2022/09/15 04:00:35;;;;;;;15.63;7.10;;;;;;;;;;10408215;28;20037;-61
2022/09/15 04:05:36;;;;;;;10.00;6.10;;;;;;;;;;10401081;28;20045;-59
2022/09/15 04:10:37;;;;;;;14.77;6.65;;;;;;;;;;10401116;28;20044;-58
2022/09/15 04:15:38;;;;;;;11.57;7.60;;;;;;;;;;10409399;28;20104;-58
2022/09/15 04:20:39;;;;;;;13.27;8.30;;;;;;;;;;10381069;28;20038;-58
2022/09/15 04:25:39;;;;;;;11.43;8.38;;;;;;;;;;10406041;28;20029;-59
2022/09/15 04:30:40;;;;;;;15.65;8.32;;;;;;;;;;10407068;28;20409;-58
2022/09/15 04:35:41;;;;;;;11.15;8.20;;;;;;;;;;10407392;28;20385;-58
2022/09/15 04:40:41;;;;;;;13.75;8.43;;;;;;;;;;10399141;28;20493;-59
2022/09/15 04:45:42;;;;;;;12.50;7.95;;;;;;;;;;10406582;28;20371;-60
2022/09/15 04:50:42;;;;;;;14.70;8.93;;;;;;;;;;10405978;28;20037;-58
2022/09/15 04:55:43;;;;;;;14.93;8.68;;;;;;;;;;10394447;28;20034;-58
2022/09/15 05:00:44;;;;;;;19.13;8.55;;;;;;;;;;10381200;28;20034;-58
2022/09/15 05:05:46;;;;;;;15.40;7.70;;;;;;;;;;10390704;28;20064;-60
2022/09/15 05:10:47;;;;;;;18.02;7.05;;;;;;;;;;10398261;28;20044;-59
2022/09/15 05:15:47;;;;;;;15.63;6.30;;;;;;;;;;10397255;28;20032;-58
2022/09/15 05:20:48;;;;;;;18.02;7.28;;;;;;;;;;10390145;28;20083;-60
2022/09/15 05:26:01;;;;;;;11.90;7.30;;;;;;;;;;10390407;28;20030;-60
2022/09/15 05:31:08;;;;;;;16.27;7.22;;;;;;;;;;10405262;28;20063;-61
2022/09/15 05:36:09;;;;;;;18.07;8.30;;;;;;;;;;10410250;28;20072;-60
2022/09/15 05:41:16;;;;;;;17.52;8.40;;;;;;;;;;10394624;28;20385;-57
2022/09/15 05:46:18;;;;;;;20.40;6.60;;;;;;;;;;10387312;28;20219;-58
2022/09/15 05:51:20;;;;;;;10.88;5.75;;;;;;;;;;10379367;28;20021;-58
2022/09/15 05:56:21;;;;;;;16.35;5.57;;;;;;;;;;10394710;28;20088;-59
2022/09/15 06:01:29;;;;;;;17.83;5.05;;;;;;;;;;10407400;28;20389;-58
2022/09/15 06:06:31;;;;;;;20.00;5.80;;;;;;;;;;10402139;28;20046;-65
2022/09/15 06:11:34;;;;;;;18.02;4.47;;;;;;;;;;10407837;28;20026;-64
2022/09/15 06:16:35;;;;;;;16.13;4.75;;;;;;;;;;10412567;28;20116;-67
2022/09/15 06:21:36;;;;;;;14.68;4.47;;;;;;;;;;10413007;28;20021;-60
2022/09/15 06:26:36;;;;;;;20.05;4.03;;;;;;;;;;10411758;28;20630;-59
2022/09/15 06:31:37;;;;;;;15.93;4.45;;;;;;;;;;10412817;28;20021;-59
2022/09/15 06:36:37;;;;;;;11.45;3.97;;;;;;;;;;10411860;28;20029;-62
2022/09/15 06:41:38;;;;;;;23.10;4.38;;;;;;;;;;10402761;28;20033;-65
2022/09/15 06:46:39;;;;;;;13.40;3.92;;;;;;;;;;10376759;28;20021;-59
2022/09/15 06:51:39;;;;;;;15.85;3.60;;;;;;;;;;10400863;28;20453;-68
2022/09/15 06:56:40;;;;;;;14.07;4.15;;;;;;;;;;10397230;28;20428;-58
2022/09/15 07:01:42;;;;;;;9.70;4.03;;;;;;;;;;10396179;28;20234;-59
2022/09/15 07:06:42;;;;;;;13.15;3.38;;;;;;;;;;10400632;28;20052;-58
2022/09/15 07:11:43;;;;;;;9.68;3.65;;;;;;;;;;10410682;28;20044;-58
2022/09/15 07:16:44;;;;;;;13.05;3.70;;;;;;;;;;10402985;28;20026;-58
2022/09/15 07:21:44;;;;;;;11.98;3.20;;;;;;;;;;10402178;28;20021;-62
2022/09/15 07:26:45;;;;;;;7.32;2.65;;;;;;;;;;10410295;28;20028;-59
2022/09/15 07:31:45;;;;;;;10.00;4.07;;;;;;;;;;10408044;28;20029;-59
2022/09/15 07:36:46;;;;;;;7.57;3.28;;;;;;;;;;10405726;28;20037;-59
2022/09/15 07:41:47;;;;;;;7.05;3.22;;;;;;;;;;10409207;28;20579;-59
2022/09/15 07:46:48;;;;;;;9.20;3.58;;;;;;;;;;10409144;28;20405;-62
2022/09/15 07:51:48;;;;;;;7.15;3.25;;;;;;;;;;10400938;28;20018;-60
2022/09/15 07:56:49;;;;;;;5.60;2.85;;;;;;;;;;10404485;28;20466;-59
2022/09/15 08:01:50;;;;;;;8.75;3.20;;;;;;;;;;10384446;28;20469;-58
2022/09/15 08:06:51;;;;;;;8.50;3.30;;;;;;;;;;10407480;28;20087;-59
2022/09/15 08:11:52;;;;;;;10.90;3.22;;;;;;;;;;10397559;28;20028;-59
2022/09/15 08:16:52;;;;;;;9.43;3.00;;;;;;;;;;10398958;28;20033;-59
2022/09/15 08:21:53;;;;;;;7.63;2.85;;;;;;;;;;10388274;28;20021;-58
2022/09/15 08:26:54;;;;;;;6.10;3.17;;;;;;;;;;10385215;28;20484;-59
2022/09/15 08:31:55;;;;;;;11.90;3.33;;;;;;;;;;10388938;28;20439;-59
2022/09/15 08:36:57;;;;;;;4.72;2.97;;;;;;;;;;10394609;28;20069;-58
2022/09/15 08:42:00;;;;;;;13.00;2.63;;;;;;;;;;10391623;28;20448;-58
2022/09/15 08:47:43;;;;;;;8.32;3.42;;;;;;;;;;10403351;28;20064;-59
2022/09/15 08:53:11;;;;;;;9.18;2.95;;;;;;;;;;10395090;28;20030;-60
2022/09/15 08:58:25;;;;;;;9.50;3.13;;;;;;;;;;10403904;28;20041;-59
2022/09/15 09:03:40;;;;;;;5.18;2.40;;;;;;;;;;10400643;28;20393;-59
2022/09/15 09:09:25;;;;;;;4.88;3.08;;;;;;;;;;10407681;28;20041;-58
2022/09/15 09:14:41;;;;;;;6.00;2.83;;;;;;;;;;10400254;28;20109;-58
2022/09/15 09:20:00;;;;;;;8.63;2.97;;;;;;;;;;10406605;28;20119;-59
2022/09/15 09:25:03;;;;;;;6.15;3.03;;;;;;;;;;10402964;28;20412;-59
2022/09/15 09:30:24;;;;;;;9.65;3.10;;;;;;;;;;10400763;28;20412;-59
2022/09/15 09:35:32;;;;;;;7.13;2.70;;;;;;;;;;10395806;28;20025;-58
2022/09/15 09:40:36;;;;;;;4.28;2.63;;;;;;;;;;10400393;28;20366;-58
2022/09/15 09:45:36;;;;;;;8.23;2.92;;;;;;;;;;10377407;28;20032;-58
2022/09/15 09:50:43;;;;;;;6.85;2.80;;;;;;;;;;10391267;28;20038;-58
2022/09/15 09:55:44;;;;;;;6.40;2.75;;;;;;;;;;10379428;28;20484;-59
2022/09/15 10:00:46;;;;;;;5.78;3.38;;;;;;;;;;10405885;28;20038;-59
2022/09/15 10:06:10;;;;;;;4.93;2.55;;;;;;;;;;10393023;28;20053;-58
2022/09/15 10:11:11;;;;;;;5.82;2.60;;;;;;;;;;10394807;28;20029;-58
2022/09/15 10:16:11;;;;;;;10.73;3.20;;;;;;;;;;10401393;28;20096;-58
2022/09/15 10:21:14;;;;;;;4.43;2.80;;;;;;;;;;10407209;28;20535;-58
2022/09/15 10:26:15;;;;;;;5.15;2.60;;;;;;;;;;10411123;28;20040;-59
2022/09/15 10:31:30;;;;;;;6.07;2.83;;;;;;;;;;10408552;28;20033;-59
2022/09/15 10:36:31;;;;;;;4.63;2.78;;;;;;;;;;10411602;28;21119;-60
2022/09/15 10:41:41;;;;;;;6.18;2.75;;;;;;;;;;10403002;28;20033;-58
2022/09/15 10:47:29;;;;;;;5.65;2.63;;;;;;;;;;10410925;28;20448;-59
2022/09/15 10:52:47;;;;;;;9.95;3.20;;;;;;;;;;10403720;28;20157;-58
2022/09/15 10:58:15;;;;;;;6.47;3.05;;;;;;;;;;10399384;28;20021;-58
2022/09/15 11:03:45;;;;;;;;;;;;;;;;;;10406623;28;20369;-58
2022/09/15 11:09:17;;;;;;;8.80;3.08;;;;;;;;;;10397664;28;19924;-59
2022/09/15 11:14:57;;;;;;;7.90;3.45;;;;;;;;;;10403279;28;20053;-59
2022/09/15 11:20:38;;;;;;;8.10;3.22;;;;;;;;;;10409691;28;20091;-58
2022/09/15 11:25:47;;;;;;;8.13;3.00;;;;;;;;;;10403488;28;20033;-63
2022/09/15 11:31:04;;;;;;;6.95;3.20;;;;;;;;;;10424623;28;20108;-59
2022/09/15 11:36:21;;;;;;;6.28;2.67;;;;;;;;;;10399593;28;20068;-59
2022/09/15 11:41:49;;;;;;;7.00;2.83;;;;;;;;;;10394663;28;20048;-64
2022/09/15 11:47:28;;;;;;;12.13;2.83;;;;;;;;;;10406242;28;20021;-59
2022/09/15 11:52:50;;;;;;;8.68;3.13;;;;;;;;;;10408011;28;20369;-58
2022/09/15 11:58:32;;;;;;;7.28;2.72;;;;;;;;;;10406871;28;20033;-60
2022/09/15 12:04:00;;;;;;;6.72;2.72;;;;;;;;;;10407694;28;20021;-59
2022/09/15 12:09:05;;;;;;;9.75;3.17;;;;;;;;;;10407663;28;20112;-58
2022/09/15 12:14:11;;;;;;;8.00;2.85;;;;;;;;;;10402923;28;20280;-58
2022/09/15 12:19:59;;;;;;;7.65;2.70;;;;;;;;;;10404131;28;20083;-58
2022/09/15 12:25:14;;;;;;;11.88;2.75;;;;;;;;;;10399211;28;20037;-58
2022/09/15 12:30:38;;;;;;;13.15;3.08;;;;;;;;;;10411886;28;20091;-59
2022/09/15 12:35:39;;;;;;;5.40;2.88;;;;;;;;;;10397108;28;20461;-60
2022/09/15 12:40:40;;;;;;;17.30;3.13;;;;;;;;;;10419809;28;20029;-59
2022/09/15 12:45:53;;;;;;;14.75;3.30;;;;;;;;;;10401063;28;20032;-59
2022/09/15 12:51:04;;;;;;;13.10;3.15;;;;;;;;;;10402625;28;20048;-59
2022/09/15 12:56:20;;;;;;;12.13;3.00;;;;;;;;;;10403458;28;20036;-59
2022/09/15 13:01:23;;;;;;;11.63;3.05;;;;;;;;;;10398066;28;20060;-61
2022/09/15 13:06:25;;;;;;;8.73;3.08;;;;;;;;;;10396032;28;20447;-58
2022/09/15 13:11:35;;;;;;;13.18;3.17;;;;;;;;;;10403118;28;20033;-59
2022/09/15 13:16:49;;;;;;;8.18;3.22;;;;;;;;;;10405182;28;20104;-60
2022/09/15 13:22:10;;;;;;;15.45;3.08;;;;;;;;;;10403805;28;20036;-59
2022/09/15 13:27:13;;;;;;;10.77;3.45;;;;;;;;;;10405478;28;20041;-59
2022/09/15 13:32:55;;;;;;;11.40;3.42;;;;;;;;;;10404615;28;20061;-60
2022/09/15 13:38:30;;;;;;;19.77;3.20;;;;;;;;;;10398843;28;20029;-57
2022/09/15 13:43:33;;;;;;;64.53;5.57;;;;;;;;;;10404672;28;20034;-52
2022/09/15 13:48:48;;;;;;;23.63;4.18;;;;;;;;;;10408872;28;20469;-57
2022/09/15 13:53:49;;;;;;;28.33;4.05;;;;;;;;;;10406433;28;20275;-58
2022/09/15 13:58:49;;;;;;;13.98;3.25;;;;;;;;;;10412823;28;20280;-57
2022/09/15 14:03:54;;;;;;;20.40;2.65;;;;;;;;;;10410889;28;20037;-58
2022/09/15 14:08:57;;;;;;;26.65;3.25;;;;;;;;;;10413074;28;20033;-57
2022/09/15 14:14:00;;;;;;;9.32;2.90;;;;;;;;;;10402192;28;20029;-58
2022/09/15 14:19:02;;;;;;;9.35;2.83;;;;;;;;;;10411893;28;20026;-57
2022/09/15 14:24:04;;;;;;;11.45;3.05;;;;;;;;;;10400462;28;20487;-58
2022/09/15 14:29:05;;;;;;;18.58;3.38;;;;;;;;;;10412135;28;20029;-57
2022/09/15 14:34:13;;;;;;;10.50;3.50;;;;;;;;;;10401203;28;20025;-57
2022/09/15 14:39:18;;;;;;;14.80;2.95;;;;;;;;;;10411782;28;20109;-57
2022/09/15 14:44:29;;;;;;;10.93;3.38;;;;;;;;;;10399400;28;20052;-58
2022/09/15 14:49:29;;;;;;;12.95;3.15;;;;;;;;;;10410922;28;20029;-57
2022/09/15 14:54:36;;;;;;;14.27;3.50;;;;;;;;;;10410640;28;20052;-58
2022/09/15 14:59:40;;;;;;;12.48;3.00;;;;;;;;;;10408151;28;20049;-58
2022/09/15 15:04:42;;;;;;;13.82;3.17;;;;;;;;;;10408334;28;20511;-58
2022/09/15 15:09:47;;;;;;;14.25;2.90;;;;;;;;;;10408178;28;20034;-58
2022/09/15 15:14:48;;;;;;;11.13;3.13;;;;;;;;;;10408652;28;20033;-58
2022/09/15 15:19:56;;;;;;;14.88;3.15;;;;;;;;;;10408823;28;20026;-58
2022/09/15 15:24:56;;;;;;;12.75;2.58;;;;;;;;;;10403097;28;20377;-58
2022/09/15 15:29:57;;;;;;;12.67;3.43;;;;;;;;;;10403517;28;20028;-58
2022/09/15 15:34:58;;;;;;;11.40;3.30;;;;;;;;;;10409745;28;20087;-58
2022/09/15 15:40:00;;;;;;;12.70;3.22;;;;;;;;;;10402614;28;20104;-58
2022/09/15 15:45:21;;;;;;;11.68;3.38;;;;;;;;;;10402900;28;20025;-58
2022/09/15 15:50:23;;;;;;;16.85;3.72;;;;;;;;;;10395515;28;20029;-57
2022/09/15 15:55:25;;;;;;;14.45;3.40;;;;;;;;;;10408601;28;20025;-58
2022/09/15 16:00:34;;;;;;;19.58;3.47;;;;;;;;;;10403473;28;20076;-58
2022/09/15 16:05:36;;;;;;;11.63;3.08;;;;;;;;;;10403312;28;20045;-58
2022/09/15 16:10:45;;;;;;;18.13;3.40;;;;;;;;;;10402582;28;20044;-58
2022/09/15 16:15:45;;;;;;;15.10;3.92;;;;;;;;;;10409101;28;20036;-58
2022/09/15 16:20:45;;;;;;;26.65;4.82;;;;;;;;;;10399608;28;20030;-57
2022/09/15 16:26:02;;;;;;;19.13;3.87;;;;;;;;;;10403216;28;20034;-58
2022/09/15 16:31:03;;;;;;;12.15;3.25;;;;;;;;;;10398776;28;20147;-58
2022/09/15 16:36:06;;;;;;;9.65;3.22;;;;;;;;;;10397018;28;20040;-58
2022/09/15 16:41:14;;;;;;;11.85;3.05;;;;;;;;;;10407380;28;20131;-57
2022/09/15 16:46:14;;;;;;;15.63;3.33;;;;;;;;;;10399597;28;20083;-57
2022/09/15 16:51:16;;;;;;;6.30;3.00;;;;;;;;;;10392629;28;20079;-57
2022/09/15 16:56:16;;;;;;;13.10;3.47;;;;;;;;;;10391888;28;20561;-57
2022/09/15 17:01:18;;;;;;;13.57;3.00;;;;;;;;;;10405475;28;20125;-57
2022/09/15 17:06:19;;;;;;;13.15;2.90;;;;;;;;;;10405032;28;20049;-57
2022/09/15 17:11:22;;;;;;;8.20;2.63;;;;;;;;;;10406091;28;20030;-57
2022/09/15 17:16:22;;;;;;;14.82;3.17;;;;;;;;;;10408681;28;20041;-58
2022/09/15 17:21:23;;;;;;;9.77;2.53;;;;;;;;;;10391333;28;20363;-58
2022/09/15 17:26:24;;;;;;;11.63;2.85;;;;;;;;;;10398968;28;20362;-58
2022/09/15 17:31:24;;;;;;;11.25;2.63;;;;;;;;;;10412087;28;20472;-57
2022/09/15 17:36:26;;;;;;;13.63;2.58;;;;;;;;;;10414489;28;20079;-58
2022/09/15 17:41:26;;;;;;;8.23;2.50;;;;;;;;;;10417482;28;20536;-57
2022/09/15 17:46:26;;;;;;;13.88;2.95;;;;;;;;;;10416750;28;20064;-57
2022/09/15 17:51:26;;;;;;;11.70;3.53;;;;;;;;;;10428109;28;20032;-58
2022/09/15 17:56:27;;;;;;;17.45;3.40;;;;;;;;;;10411379;28;20025;-58
2022/09/15 18:01:27;;;;;;;12.30;3.30;;;;;;;;;;10416264;28;20025;-58
2022/09/15 18:06:27;;;;;;;17.90;6.50;;;;;;;;;;10409679;28;20029;-57
2022/09/15 18:11:28;;;;;;;22.15;6.63;;;;;;;;;;10411752;28;20029;-57
2022/09/15 18:16:28;;;;;;;22.20;5.72;;;;;;;;;;10395067;28;20029;-57
2022/09/15 18:21:28;;;;;;;15.35;4.50;;;;;;;;;;10406716;28;20091;-58
2022/09/15 18:26:29;;;;;;;24.53;5.10;;;;;;;;;;10405048;28;20147;-58
2022/09/15 18:31:29;;;;;;;14.85;4.00;;;;;;;;;;10408514;28;20454;-57
2022/09/15 18:36:29;;;;;;;9.48;3.67;;;;;;;;;;10410955;28;20079;-57
2022/09/15 18:41:30;;;;;;;12.27;3.95;;;;;;;;;;10404619;28;20385;-58
2022/09/15 18:46:30;;;;;;;13.40;3.90;;;;;;;;;;10404526;28;20032;-58
2022/09/15 18:51:30;;;;;;;24.63;3.40;;;;;;;;;;10409231;28;20052;-55
2022/09/15 18:56:30;;;;;;;14.52;3.70;;;;;;;;;;10409293;28;20025;-58
2022/09/15 19:01:31;;;;;;;18.83;4.47;;;;;;;;;;10408728;28;20062;-55
2022/09/15 19:06:31;;;;;;;16.98;4.32;;;;;;;;;;10403265;28;20049;-57
2022/09/15 19:11:50;;;;;;;9.52;3.75;;;;;;;;;;10394775;28;20377;-58
2022/09/15 19:16:51;;;;;;;14.45;3.85;;;;;;;;;;10390286;23;20038;-57
2022/09/15 19:21:51;;;;;;;14.80;3.72;;;;;;;;;;10384998;28;20021;-57
2022/09/15 19:26:51;;;;;;;20.75;3.78;;;;;;;;;;10389989;28;20400;-58
2022/09/15 19:31:52;;;;;;;17.33;4.15;;;;;;;;;;10393363;28;20072;-57
2022/09/15 19:36:53;;;;;;;17.10;3.90;;;;;;;;;;10394418;28;20115;-58
2022/09/15 19:41:53;;;;;;;11.88;3.33;;;;;;;;;;10392665;28;20025;-57
2022/09/15 19:46:53;;;;;;;20.08;4.07;;;;;;;;;;10391551;28;20042;-57
2022/09/15 19:51:54;;;;;;;14.48;3.72;;;;;;;;;;10392073;28;20038;-57
2022/09/15 19:56:54;;;;;;;17.15;4.07;;;;;;;;;;10382440;28;20037;-57
2022/09/15 20:01:55;;;;;;;13.95;3.95;;;;;;;;;;10387082;28;20543;-57
2022/09/15 20:06:56;;;;;;;14.32;3.80;;;;;;;;;;10382990;28;20033;-57
2022/09/15 20:11:56;;;;;;;10.05;2.80;;;;;;;;;;10388369;28;20017;-57
2022/09/15 20:16:56;;;;;;;15.10;3.50;;;;;;;;;;10396415;28;20037;-57
2022/09/15 20:21:56;;;;;;;17.47;3.80;;;;;;;;;;10379340;28;20455;-57
2022/09/15 20:26:58;;;;;;;9.82;3.17;;;;;;;;;;10388463;28;20527;-56
2022/09/15 20:31:58;;;;;;;14.90;3.67;;;;;;;;;;10387115;28;20025;-57
2022/09/15 20:36:58;;;;;;;16.75;3.47;;;;;;;;;;10391443;28;20468;-57
2022/09/15 20:41:59;;;;;;;12.87;3.70;;;;;;;;;;10393097;28;20373;-57
2022/09/15 20:46:59;;;;;;;16.17;3.67;;;;;;;;;;10387654;28;20513;-57
2022/09/15 20:51:59;;;;;;;12.93;3.60;;;;;;;;;;10387727;28;20021;-57
2022/09/15 20:57:00;;;;;;;13.17;3.47;;;;;;;;;;10391219;28;20045;-57
2022/09/15 21:02:03;;;;;;;11.82;3.42;;;;;;;;;;10378042;28;20904;-57
2022/09/15 21:07:03;;;;;;;10.02;3.15;;;;;;;;;;10391617;28;20120;-56
2022/09/15 21:12:04;;;;;;;10.97;3.13;;;;;;;;;;10388667;28;20074;-57
2022/09/15 21:17:04;;;;;;;16.05;4.00;;;;;;;;;;10386509;28;20793;-57
2022/09/15 21:22:05;;;;;;;12.32;3.95;;;;;;;;;;10383540;28;20371;-56
2022/09/15 21:32:24;;;;;;;15.70;3.90;;;;;;;;;;10395599;28;20061;-56
2022/09/15 21:37:26;;;;;;;12.60;3.45;;;;;;;;;;10394927;28;20455;-56
2022/09/15 21:42:26;;;;;;;23.65;4.10;;;;;;;;;;10393041;28;20100;-58
2022/09/15 21:47:26;;;;;;;11.57;3.05;;;;;;;;;;10395325;28;20510;-57
2022/09/15 21:52:27;;;;;;;18.08;3.53;;;;;;;;;;10400024;28;20033;-57
2022/09/15 21:57:27;;;;;;;11.35;3.08;;;;;;;;;;10401113;28;20280;-55
2022/09/15 22:02:29;;;;;;;18.48;4.05;;;;;;;;;;10400762;28;20083;-56
2022/09/15 22:07:30;;;;;;;12.73;2.90;;;;;;;;;;10389472;28;20034;-55
2022/09/15 22:12:30;;;;;;;19.83;3.60;;;;;;;;;;10392912;28;20037;-53
2022/09/15 22:17:30;;;;;;;11.27;3.08;;;;;;;;;;10389050;28;20049;-53
2022/09/15 22:22:31;;;;;;;10.18;3.40;;;;;;;;;;10409118;28;20029;-53
2022/09/15 22:27:31;;;;;;;17.38;3.88;;;;;;;;;;10389714;28;20094;-53
2022/09/15 22:32:31;;;;;;;9.43;3.65;;;;;;;;;;10412614;28;20260;-54
2022/09/15 22:37:32;;;;;;;21.52;3.47;;;;;;;;;;10411256;28;20033;-53
2022/09/15 22:42:32;;;;;;;12.57;3.17;;;;;;;;;;10409862;28;20493;-54
2022/09/15 22:47:33;;;;;;;11.60;2.90;;;;;;;;;;10404004;28;20075;-54
2022/09/15 22:52:33;;;;;;;12.33;3.50;;;;;;;;;;10408739;28;20032;-54
2022/09/15 22:57:38;;;;;;;8.20;3.05;;;;;;;;;;10410357;28;20537;-53
2022/09/15 23:02:38;;;;;;;11.30;3.20;;;;;;;;;;10398743;28;20041;-51
2022/09/15 23:07:38;;;;;;;7.97;3.08;;;;;;;;;;10406129;28;20033;-53
2022/09/15 23:12:39;;;;;;;9.55;2.55;;;;;;;;;;10396100;28;20021;-51
2022/09/15 23:17:39;;;;;;;10.75;3.05;;;;;;;;;;10402933;28;20045;-54
2022/09/15 23:22:39;;;;;;;12.20;2.57;;;;;;;;;;10407836;28;20433;-54
2022/09/15 23:27:40;;;;;;;11.40;3.00;;;;;;;;;;10413639;28;20389;-55
2022/09/15 23:32:40;;;;;;;10.73;2.90;;;;;;;;;;10407632;28;20404;-56
2022/09/15 23:37:40;;;;;;;10.13;2.67;;;;;;;;;;10400937;28;20436;-54
2022/09/15 23:42:41;;;;;;;7.40;2.60;;;;;;;;;;10395410;28;20037;-54
2022/09/15 23:47:41;;;;;;;6.20;2.50;;;;;;;;;;10403191;28;20030;-54
2022/09/15 23:52:41;;;;;;;7.05;2.67;;;;;;;;;;10400771;28;20014;-53
2022/09/15 23:57:41;;;;;;;6.07;2.63;;;;;;;;;;10397072;28;20503;-54
